Time;durP1;ratioP1;P1;durP2;ratioP2;P2;SDS_P1;SDS_P2;PMS_P1;PMS_P2;Temp;Humidity;BMP_temperature;BMP_pressure;BME280_temperature;BME280_humidity;BME280_pressure;Samples;Min_cycle;Max_cycle;Signal;HPM_P1;HPM_P2
2022/10/25 00:00:20;;;;;;;10.50;6.07;;;13.50;99.90;;;;;;5063072;28;20469;-84
2022/10/25 00:02:47;;;;;;;6.03;4.80;;;13.50;99.90;;;;;;5060862;28;20420;-83
2022/10/25 00:05:15;;;;;;;13.20;4.57;;;13.50;99.90;;;;;;5067147;28;20444;-82
2022/10/25 00:07:42;;;;;;;5.37;4.87;;;13.50;99.90;;;;;;5074810;28;20446;-83
2022/10/25 00:10:11;;;;;;;9.93;5.40;;;13.50;99.90;;;;;;5073001;28;20436;-82
2022/10/25 00:12:42;;;;;;;5.00;3.73;;;13.50;99.90;;;;;;5065433;28;20438;-83
2022/10/25 00:15:12;;;;;;;8.53;4.43;;;13.50;99.90;;;;;;5063822;28;20891;-83
2022/10/25 00:17:38;;;;;;;6.03;4.03;;;13.50;99.90;;;;;;5064074;28;20424;-83
2022/10/25 00:20:06;;;;;;;13.80;4.63;;;13.50;99.90;;;;;;5061870;28;20465;-83
2022/10/25 00:22:33;;;;;;;4.20;3.83;;;13.50;99.90;;;;;;5062551;28;20442;-83
2022/10/25 00:24:59;;;;;;;5.43;4.87;;;13.40;99.90;;;;;;5062919;28;20496;-83
2022/10/25 00:27:27;;;;;;;6.70;4.83;;;13.30;99.90;;;;;;5071557;28;20480;-83
2022/10/25 00:29:54;;;;;;;8.50;5.07;;;13.40;99.90;;;;;;5070796;28;20476;-84
2022/10/25 00:32:21;;;;;;;10.10;5.00;;;13.40;99.90;;;;;;5063393;28;20453;-84
2022/10/25 00:34:48;;;;;;;8.57;4.50;;;13.40;99.90;;;;;;5064385;28;20420;-83
2022/10/25 00:37:14;;;;;;;12.77;5.57;;;13.40;99.90;;;;;;5066968;28;20552;-83
2022/10/25 00:39:41;;;;;;;8.17;5.70;;;13.30;99.90;;;;;;5067134;28;20448;-84
2022/10/25 00:42:11;;;;;;;8.43;5.27;;;13.40;99.90;;;;;;5064524;28;20867;-84
2022/10/25 00:44:55;;;;;;;5.80;4.53;;;13.30;99.90;;;;;;5063503;28;20490;-83
2022/10/25 00:47:43;;;;;;;7.77;4.37;;;13.30;99.90;;;;;;5062943;28;20431;-83
2022/10/25 00:50:32;;;;;;;7.17;4.87;;;13.30;99.90;;;;;;5062870;28;20448;-84
2022/10/25 00:53:05;;;;;;;8.83;4.60;;;13.10;99.90;;;;;;5065248;28;20429;-84
2022/10/25 00:55:32;;;;;;;6.10;5.00;;;13.20;99.90;;;;;;5069999;28;20480;-83
2022/10/25 00:58:05;;;;;;;9.57;4.73;;;13.20;99.90;;;;;;5070388;28;20468;-83
2022/10/25 01:00:33;;;;;;;8.80;4.90;;;13.20;99.90;;;;;;5069481;28;20465;-84
2022/10/25 01:03:00;;;;;;;12.10;5.97;;;13.20;99.90;;;;;;5062092;28;20794;-84
2022/10/25 01:05:26;;;;;;;5.83;4.93;;;13.10;99.90;;;;;;5062236;28;20485;-84
2022/10/25 01:07:54;;;;;;;5.97;4.70;;;13.10;99.90;;;;;;5063079;28;20450;-84
2022/10/25 01:10:20;;;;;;;12.57;5.17;;;13.10;99.90;;;;;;5063029;28;20473;-84
2022/10/25 01:12:47;;;;;;;6.60;4.80;;;13.20;99.90;;;;;;5061922;28;20445;-84
2022/10/25 01:15:14;;;;;;;4.97;4.10;;;13.20;99.90;;;;;;5063579;28;20503;-84
2022/10/25 01:17:52;;;;;;;10.20;4.50;;;13.20;99.90;;;;;;5065853;28;20441;-83
2022/10/25 01:20:39;;;;;;;9.13;5.77;;;13.20;99.90;;;;;;5065457;28;20505;-83
2022/10/25 01:23:24;;;;;;;7.20;5.20;;;13.20;99.90;;;;;;5065491;28;20400;-84
2022/10/25 01:26:12;;;;;;;9.60;5.80;;;13.20;99.90;;;;;;5065051;28;20488;-83
2022/10/25 01:28:54;;;;;;;8.33;5.00;;;13.30;99.90;;;;;;5065432;28;20433;-83
2022/10/25 01:31:30;;;;;;;7.30;4.80;;;13.30;99.90;;;;;;5064922;28;20469;-83
2022/10/25 01:34:02;;;;;;;11.40;5.00;;;13.40;99.90;;;;;;5065652;28;20429;-83
2022/10/25 01:36:41;;;;;;;11.47;5.10;;;13.40;99.90;;;;;;5065323;28;20517;-82
2022/10/25 01:39:12;;;;;;;7.17;5.47;;;13.50;99.90;;;;;;5066608;28;20442;-82
2022/10/25 01:41:51;;;;;;;9.10;6.43;;;13.60;99.90;;;;;;5077029;28;20434;-82
2022/10/25 01:44:31;;;;;;;7.77;5.80;;;13.60;99.90;;;;;;5075026;28;20500;-84
2022/10/25 01:47:02;;;;;;;7.03;4.87;;;13.60;99.90;;;;;;5067156;28;20464;-83
2022/10/25 01:49:36;;;;;;;9.57;6.00;;;13.60;99.90;;;;;;5065934;28;20984;-84
2022/10/25 01:52:03;;;;;;;6.53;5.50;;;13.60;99.90;;;;;;5065548;28;20476;-84
2022/10/25 01:54:30;;;;;;;9.83;5.90;;;13.60;99.90;;;;;;5065427;28;20445;-83
2022/10/25 01:57:11;;;;;;;8.40;4.77;;;13.60;99.90;;;;;;5067316;28;20842;-84
2022/10/25 01:59:52;;;;;;;11.30;5.00;;;13.60;99.90;;;;;;5065396;28;20473;-84
2022/10/25 02:02:28;;;;;;;12.27;7.00;;;13.60;99.90;;;;;;5065890;28;20425;-84
2022/10/25 02:05:04;;;;;;;17.73;5.30;;;13.60;99.90;;;;;;5065251;28;20473;-84
2022/10/25 02:07:37;;;;;;;8.73;5.60;;;13.60;99.90;;;;;;5065298;28;20430;-84
2022/10/25 02:10:09;;;;;;;6.30;4.90;;;13.60;99.90;;;;;;5065361;28;20496;-85
2022/10/25 02:12:48;;;;;;;8.93;4.73;;;13.60;99.90;;;;;;5065794;28;20611;-84
2022/10/25 02:15:18;;;;;;;6.87;4.50;;;13.60;99.90;;;;;;5064958;28;20430;-84
2022/10/25 02:17:52;;;;;;;8.63;5.10;;;13.70;99.90;;;;;;5073894;28;20433;-84
2022/10/25 02:20:21;;;;;;;14.87;6.80;;;13.70;99.90;;;;;;5066550;28;20453;-84
2022/10/25 02:22:49;;;;;;;7.00;4.50;;;13.70;99.90;;;;;;5067270;28;20472;-84
2022/10/25 02:25:16;;;;;;;13.50;5.50;;;13.70;99.90;;;;;;5078487;28;20481;-84
2022/10/25 02:27:45;;;;;;;13.20;5.13;;;13.70;99.90;;;;;;5078814;28;20468;-83
2022/10/25 02:30:12;;;;;;;9.03;5.10;;;13.70;99.90;;;;;;5077819;28;20503;-83
2022/10/25 02:32:39;;;;;;;7.77;5.30;;;13.70;99.90;;;;;;5065027;28;20450;-83
2022/10/25 02:35:13;;;;;;;12.47;5.43;;;13.70;99.90;;;;;;5061696;28;20496;-83
2022/10/25 02:37:40;;;;;;;6.17;4.53;;;13.70;99.90;;;;;;5062632;28;20434;-84
2022/10/25 02:40:08;;;;;;;13.57;5.27;;;13.70;99.90;;;;;;5062764;28;20474;-83
2022/10/25 02:42:35;;;;;;;10.10;5.23;;;13.70;99.90;;;;;;5063178;28;20457;-83
2022/10/25 02:45:01;;;;;;;5.53;4.10;;;13.80;99.90;;;;;;5062605;28;20456;-84
2022/10/25 02:47:28;;;;;;;7.03;5.10;;;13.70;99.90;;;;;;5064290;28;20424;-83
2022/10/25 02:49:55;;;;;;;8.43;4.63;;;13.70;99.90;;;;;;5064555;28;20470;-83
2022/10/25 02:52:23;;;;;;;5.50;4.50;;;13.70;99.90;;;;;;5064949;28;20434;-83
2022/10/25 02:54:49;;;;;;;7.27;4.53;;;13.70;99.90;;;;;;5065234;28;20446;-83
2022/10/25 02:57:16;;;;;;;7.33;4.90;;;13.70;99.90;;;;;;5064876;28;20453;-84
2022/10/25 02:59:43;;;;;;;6.43;5.13;;;13.70;99.90;;;;;;5064223;28;20472;-85
2022/10/25 03:02:09;;;;;;;7.27;4.80;;;13.80;99.90;;;;;;5064627;28;20446;-83
2022/10/25 03:04:36;;;;;;;7.97;4.40;;;13.70;99.90;;;;;;5064348;28;20478;-83
2022/10/25 03:07:03;;;;;;;6.97;4.60;;;13.70;99.90;;;;;;5064107;28;20461;-83
2022/10/25 03:09:31;;;;;;;8.13;4.70;;;13.80;99.90;;;;;;5066510;28;20488;-83
2022/10/25 03:11:57;;;;;;;6.30;4.10;;;13.80;99.90;;;;;;5064656;28;20453;-83
2022/10/25 03:14:24;;;;;;;7.70;4.23;;;13.80;99.90;;;;;;5064472;28;20442;-83
2022/10/25 03:16:51;;;;;;;7.43;4.23;;;13.80;99.90;;;;;;5064647;28;20456;-84
2022/10/25 03:19:17;;;;;;;5.30;4.20;;;13.90;99.90;;;;;;5064421;28;20446;-85
2022/10/25 03:21:44;;;;;;;7.83;5.07;;;13.70;99.90;;;;;;5063211;28;20456;-83
2022/10/25 03:24:11;;;;;;;6.57;4.03;;;13.70;99.90;;;;;;5064399;28;20458;-83
2022/10/25 03:26:39;;;;;;;6.77;4.43;;;13.70;99.90;;;;;;5064138;28;20424;-83
2022/10/25 03:29:05;;;;;;;6.50;3.80;;;13.70;99.90;;;;;;5063651;28;20451;-83
2022/10/25 03:31:32;;;;;;;6.20;4.10;;;13.70;99.90;;;;;;5063756;28;20992;-84
2022/10/25 03:33:59;;;;;;;5.37;4.13;;;13.70;99.90;;;;;;5064132;28;20932;-84
2022/10/25 03:36:25;;;;;;;4.67;3.57;;;13.80;99.90;;;;;;5063519;28;20952;-83
2022/10/25 03:38:52;;;;;;;9.53;4.07;;;13.80;99.90;;;;;;5063123;28;20500;-83
2022/10/25 03:41:19;;;;;;;4.63;3.87;;;13.80;99.90;;;;;;5064180;28;20465;-83
2022/10/25 03:43:47;;;;;;;6.10;3.70;;;13.70;99.90;;;;;;5063303;28;20449;-83
2022/10/25 03:46:13;;;;;;;5.47;3.10;;;13.60;99.90;;;;;;5064357;28;20486;-86
2022/10/25 03:48:40;;;;;;;5.93;3.40;;;13.40;99.90;;;;;;5063823;28;20816;-84
2022/10/25 03:51:07;;;;;;;6.70;3.40;;;13.60;99.90;;;;;;5063233;28;20462;-84
2022/10/25 03:53:33;;;;;;;6.83;3.50;;;13.50;99.90;;;;;;5063878;28;20453;-84
2022/10/25 03:56:00;;;;;;;8.80;4.60;;;13.50;99.90;;;;;;5063796;28;20442;-84
2022/10/25 03:58:27;;;;;;;6.83;3.77;;;13.50;99.90;;;;;;5063710;28;20955;-83
2022/10/25 04:00:55;;;;;;;6.97;3.40;;;13.40;99.90;;;;;;5061929;28;20512;-83
2022/10/25 04:03:21;;;;;;;7.57;3.80;;;13.40;99.90;;;;;;5062592;28;20446;-83
2022/10/25 04:05:48;;;;;;;4.00;3.10;;;13.40;99.90;;;;;;5062461;28;20500;-84
2022/10/25 04:08:15;;;;;;;7.43;3.53;;;13.40;99.90;;;;;;5062962;28;20420;-83
2022/10/25 04:10:41;;;;;;;4.30;3.90;;;13.40;99.90;;;;;;5063664;28;20515;-83
2022/10/25 04:13:08;;;;;;;5.30;3.80;;;13.40;99.90;;;;;;5062797;28;20919;-83
2022/10/25 04:15:35;;;;;;;5.67;3.07;;;13.40;99.90;;;;;;5067912;28;20806;-83
2022/10/25 04:18:03;;;;;;;4.37;3.00;;;13.30;99.90;;;;;;5064275;28;20874;-83
2022/10/25 04:20:29;;;;;;;7.60;3.47;;;13.30;99.90;;;;;;5073323;28;20446;-83
2022/10/25 04:22:56;;;;;;;5.97;3.30;;;13.30;99.90;;;;;;5076121;28;20442;-83
2022/10/25 04:25:25;;;;;;;4.60;2.73;;;13.30;99.90;;;;;;5076030;28;20469;-82
2022/10/25 04:27:51;;;;;;;5.70;2.90;;;13.40;99.90;;;;;;5074851;28;20445;-82
2022/10/25 04:30:18;;;;;;;4.60;3.80;;;13.40;99.90;;;;;;5071916;28;20478;-83
2022/10/25 04:32:45;;;;;;;6.97;3.00;;;13.40;99.90;;;;;;5069588;28;20437;-82
2022/10/25 04:35:13;;;;;;;7.70;3.30;;;13.40;99.90;;;;;;5059661;28;20532;-82
2022/10/25 04:37:40;;;;;;;4.23;3.37;;;13.40;99.90;;;;;;5054646;28;20805;-82
2022/10/25 04:40:08;;;;;;;13.07;4.93;;;13.40;99.90;;;;;;5055300;28;20874;-82
2022/10/25 04:42:35;;;;;;;3.23;2.93;;;13.40;99.90;;;;;;5055738;28;20511;-82
2022/10/25 04:45:02;;;;;;;5.70;3.30;;;13.40;99.90;;;;;;5056093;28;20488;-82
2022/10/25 04:47:30;;;;;;;9.20;3.43;;;13.40;99.90;;;;;;5055590;28;20847;-82
2022/10/25 04:49:57;;;;;;;8.63;3.50;;;13.40;99.90;;;;;;5062228;28;20464;-83
2022/10/25 04:52:26;;;;;;;9.25;4.10;;;13.40;99.90;;;;;;5067960;28;20462;-82
2022/10/25 04:54:52;;;;;;;13.07;3.57;;;13.40;99.90;;;;;;5061630;28;20203;-82
2022/10/25 04:57:19;;;;;;;3.77;3.00;;;13.40;99.90;;;;;;5061590;28;20476;-82
2022/10/25 04:59:46;;;;;;;6.13;3.37;;;13.40;99.90;;;;;;5061969;28;20492;-82
2022/10/25 05:02:12;;;;;;;5.50;3.10;;;13.30;99.90;;;;;;5062361;28;20445;-83
2022/10/25 05:04:39;;;;;;;5.70;2.37;;;13.30;99.90;;;;;;5062544;28;20528;-83
2022/10/25 05:07:06;;;;;;;5.27;3.20;;;13.30;99.90;;;;;;5064265;28;20420;-82
2022/10/25 05:09:34;;;;;;;4.13;2.83;;;13.30;99.90;;;;;;5063621;28;20470;-83
2022/10/25 05:12:00;;;;;;;4.87;3.13;;;13.30;99.90;;;;;;5065031;28;20476;-83
2022/10/25 05:14:27;;;;;;;7.53;3.57;;;13.30;99.90;;;;;;5065631;28;20805;-83
2022/10/25 05:16:53;;;;;;;3.57;3.27;;;13.30;99.90;;;;;;5072938;28;20434;-83
2022/10/25 05:19:20;;;;;;;9.83;2.77;;;13.40;99.90;;;;;;5061854;28;20454;-83
2022/10/25 05:21:47;;;;;;;5.83;2.77;;;13.30;99.90;;;;;;5063962;28;20424;-84
2022/10/25 05:24:13;;;;;;;4.80;2.70;;;13.30;99.90;;;;;;5064270;28;20487;-83
2022/10/25 05:26:41;;;;;;;7.63;3.60;;;13.30;99.90;;;;;;5064164;28;20481;-83
2022/10/25 05:32:14;;;;;;;3.03;2.73;;;13.30;99.90;;;;;;5125992;27;20457;-82
2022/10/25 05:34:41;;;;;;;3.43;2.67;;;13.30;99.90;;;;;;5130533;28;20431;-81
2022/10/25 05:37:07;;;;;;;6.53;3.13;;;13.30;99.90;;;;;;5124358;28;20850;-81
2022/10/25 05:39:34;;;;;;;4.17;3.00;;;13.40;99.90;;;;;;5116770;28;20809;-81
2022/10/25 05:42:05;;;;;;;5.50;2.77;;;13.30;99.90;;;;;;5096552;28;20441;-83
2022/10/25 05:44:31;;;;;;;9.80;3.57;;;13.30;99.90;;;;;;5095919;28;20486;-81
2022/10/25 05:46:58;;;;;;;6.93;3.60;;;13.30;99.90;;;;;;5096865;28;20448;-82
2022/10/25 05:49:26;;;;;;;5.43;2.60;;;13.30;99.90;;;;;;5099694;28;20447;-82
2022/10/25 05:51:53;;;;;;;6.20;2.60;;;13.30;99.90;;;;;;5098824;28;20452;-82
2022/10/25 05:54:21;;;;;;;5.83;3.17;;;13.40;99.90;;;;;;5101081;28;20448;-82
2022/10/25 05:56:47;;;;;;;7.80;2.90;;;13.40;99.90;;;;;;5106062;28;20444;-82
2022/10/25 05:59:15;;;;;;;8.07;3.30;;;13.50;99.90;;;;;;5105525;28;20427;-82
2022/10/25 06:01:44;;;;;;;7.00;2.33;;;13.50;99.90;;;;;;5097530;28;20464;-82
2022/10/25 06:04:11;;;;;;;3.70;2.50;;;13.50;99.90;;;;;;5097875;28;20444;-82
2022/10/25 06:06:41;;;;;;;2.63;2.30;;;13.20;99.90;;;;;;5097815;28;20440;-82
2022/10/25 06:09:08;;;;;;;4.87;2.93;;;13.50;99.90;;;;;;5097360;28;20444;-82
2022/10/25 06:11:35;;;;;;;5.07;2.67;;;13.50;99.90;;;;;;5096428;28;20513;-81
2022/10/25 06:14:02;;;;;;;4.50;2.50;;;13.60;99.90;;;;;;5096237;28;20827;-82
2022/10/25 06:16:29;;;;;;;5.50;2.27;;;13.60;99.90;;;;;;5095603;28;20452;-82
2022/10/25 06:18:55;;;;;;;4.03;3.00;;;13.70;99.90;;;;;;5096060;28;20816;-82
2022/10/25 06:21:24;;;;;;;4.33;2.60;;;13.70;99.90;;;;;;5094601;28;20490;-82
2022/10/25 06:23:52;;;;;;;3.03;2.73;;;13.80;99.90;;;;;;5095918;28;20543;-82
2022/10/25 06:26:21;;;;;;;4.43;2.60;;;13.80;99.90;;;;;;5095587;28;20965;-82
2022/10/25 06:28:51;;;;;;;5.80;2.70;;;13.80;99.90;;;;;;5095474;28;21017;-82
2022/10/25 06:31:19;;;;;;;5.17;3.00;;;13.80;99.90;;;;;;5094894;28;20467;-81
2022/10/25 06:33:46;;;;;;;7.33;2.30;;;14.40;99.90;;;;;;5103838;28;20444;-82
2022/10/25 06:36:15;;;;;;;4.50;2.90;;;13.80;99.90;;;;;;5106256;28;20463;-81
2022/10/25 06:38:42;;;;;;;5.70;2.93;;;13.80;99.90;;;;;;5104714;28;20484;-81
2022/10/25 06:41:13;;;;;;;14.33;3.10;;;13.90;99.90;;;;;;5095531;28;20557;-80
2022/10/25 06:43:40;;;;;;;5.03;3.20;;;13.90;99.90;;;;;;5083492;28;20512;-82
2022/10/25 06:46:07;;;;;;;6.10;3.00;;;14.00;99.90;;;;;;5084000;28;20445;-82
2022/10/25 06:48:34;;;;;;;4.00;2.90;;;13.90;99.90;;;;;;5081838;28;20449;-81
2022/10/25 06:51:02;;;;;;;4.90;2.57;;;13.90;99.90;;;;;;5081890;28;20457;-82
2022/10/25 06:53:28;;;;;;;6.37;2.60;;;13.90;99.90;;;;;;5083652;28;20480;-82
2022/10/25 06:55:59;;;;;;;7.40;2.50;;;14.00;99.90;;;;;;5084647;28;20432;-82
2022/10/25 06:58:29;;;;;;;7.30;3.33;;;14.00;99.90;;;;;;5084487;28;20433;-82
2022/10/25 07:00:59;;;;;;;8.07;2.70;;;13.70;99.90;;;;;;5096767;28;20495;-82
2022/10/25 07:03:29;;;;;;;7.70;2.77;;;13.90;99.90;;;;;;5098611;28;20423;-82
2022/10/25 07:05:59;;;;;;;5.47;2.37;;;14.00;99.90;;;;;;5098621;28;20445;-82
2022/10/25 07:08:25;;;;;;;7.57;2.70;;;14.00;99.90;;;;;;5092630;28;20437;-82
2022/10/25 07:10:53;;;;;;;10.23;3.50;;;14.00;99.90;;;;;;5086474;28;20465;-82
2022/10/25 07:13:20;;;;;;;4.80;2.87;;;14.10;99.90;;;;;;5087885;28;20476;-81
2022/10/25 07:15:48;;;;;;;2.87;2.53;;;14.10;99.90;;;;;;5089269;28;20792;-81
2022/10/25 07:18:15;;;;;;;7.83;2.90;;;14.00;99.90;;;;;;5088125;28;20444;-81
2022/10/25 07:20:45;;;;;;;12.07;3.00;;;14.10;99.90;;;;;;5088117;28;20488;-81
2022/10/25 07:23:12;;;;;;;6.20;2.60;;;14.10;99.90;;;;;;5086760;28;20433;-81
2022/10/25 07:25:39;;;;;;;5.33;2.77;;;14.10;99.90;;;;;;5083747;28;20830;-82
2022/10/25 07:28:05;;;;;;;4.40;2.47;;;14.10;99.90;;;;;;5083121;28;20428;-82
2022/10/25 07:30:32;;;;;;;5.47;2.63;;;14.20;99.90;;;;;;5082934;28;20470;-81
2022/10/25 07:33:01;;;;;;;7.80;2.50;;;14.20;99.90;;;;;;5081604;28;21002;-83
2022/10/25 07:35:28;;;;;;;9.97;6.10;;;14.20;99.90;;;;;;5082058;28;20445;-82
2022/10/25 07:37:55;;;;;;;4.30;3.30;;;14.20;99.90;;;;;;5081975;28;20943;-82
2022/10/25 07:40:22;;;;;;;7.30;3.77;;;;;;;;;;5081743;28;20490;-81
2022/10/25 07:42:51;;;;;;;39.17;17.70;;;14.20;99.90;;;;;;5082872;28;20502;-82
2022/10/25 07:45:17;;;;;;;23.60;10.80;;;14.20;99.90;;;;;;5081951;28;20460;-83
2022/10/25 07:47:44;;;;;;;12.60;5.33;;;14.20;99.90;;;;;;5080513;28;20448;-83
2022/10/25 07:50:12;;;;;;;10.23;4.23;;;14.20;99.90;;;;;;5080338;28;20798;-81
2022/10/25 07:52:39;;;;;;;4.20;3.00;;;14.20;99.90;;;;;;5078825;28;20453;-82
2022/10/25 07:55:09;;;;;;;3.90;2.30;;;14.40;99.90;;;;;;5079833;28;20448;-82
2022/10/25 07:57:36;;;;;;;5.90;2.30;;;14.30;99.90;;;;;;5081681;28;20433;-82
2022/10/25 08:00:03;;;;;;;2.90;2.60;;;14.40;99.90;;;;;;5083553;28;20840;-81
2022/10/25 08:02:30;;;;;;;6.50;2.03;;;14.50;99.90;;;;;;5088607;28;20491;-82
2022/10/25 08:04:56;;;;;;;2.90;2.23;;;14.30;99.90;;;;;;5084802;28;20494;-81
2022/10/25 08:07:24;;;;;;;3.37;2.63;;;14.60;99.90;;;;;;5085472;28;20453;-81
2022/10/25 08:09:51;;;;;;;11.10;2.40;;;14.50;99.90;;;;;;5084392;28;20562;-82
2022/10/25 08:12:18;;;;;;;2.93;1.80;;;14.90;99.90;;;;;;5086799;28;20467;-81
2022/10/25 08:14:44;;;;;;;5.20;2.30;;;14.70;99.90;;;;;;5083665;28;20456;-82
2022/10/25 08:17:11;;;;;;;2.13;1.90;;;14.80;99.90;;;;;;5082867;28;20493;-83
2022/10/25 08:19:38;;;;;;;15.57;3.73;;;14.80;99.90;;;;;;5082230;28;20456;-82
2022/10/25 08:22:04;;;;;;;5.17;2.30;;;14.70;99.90;;;;;;5082949;28;20542;-82
2022/10/25 08:24:34;;;;;;;3.43;2.80;;;14.50;99.90;;;;;;5086676;28;20463;-82
2022/10/25 08:27:01;;;;;;;6.20;3.30;;;14.40;99.90;;;;;;5089589;28;20448;-82
2022/10/25 08:29:28;;;;;;;3.63;2.33;;;14.50;99.90;;;;;;5087596;28;20437;-81
2022/10/25 08:31:54;;;;;;;2.27;2.07;;;14.20;99.90;;;;;;5085807;28;20440;-82
2022/10/25 08:34:21;;;;;;;3.83;2.70;;;14.20;99.90;;;;;;5085972;28;20441;-82
2022/10/25 08:36:48;;;;;;;3.90;2.27;;;14.30;99.90;;;;;;5077721;28;20455;-82
2022/10/25 08:39:16;;;;;;;2.93;2.63;;;14.20;99.90;;;;;;5081914;28;20437;-83
2022/10/25 08:41:50;;;;;;;5.90;2.57;;;14.20;99.90;;;;;;5081474;28;20993;-82
2022/10/25 08:44:28;;;;;;;4.80;3.47;;;14.20;99.90;;;;;;5079365;28;20432;-82
2022/10/25 08:46:59;;;;;;;4.47;2.60;;;14.20;99.90;;;;;;5080490;28;20900;-82
2022/10/25 08:49:32;;;;;;;13.63;4.63;;;14.30;99.90;;;;;;5079251;28;20436;-82
2022/10/25 08:52:01;;;;;;;4.90;3.57;;;14.40;99.90;;;;;;5078918;28;20425;-82
2022/10/25 08:54:31;;;;;;;8.10;2.93;;;14.40;99.90;;;;;;5078787;28;20456;-82
2022/10/25 08:57:08;;;;;;;4.03;2.57;;;14.40;99.90;;;;;;5085178;28;20426;-82
2022/10/25 08:59:41;;;;;;;8.00;3.40;;;14.50;99.90;;;;;;5080764;28;20487;-82
2022/10/25 09:02:18;;;;;;;8.77;3.40;;;14.30;99.90;;;;;;5084438;28;20465;-82
2022/10/25 09:04:44;;;;;;;5.27;2.60;;;14.40;99.90;;;;;;5086426;28;20459;-82
2022/10/25 09:07:50;;;;;;;5.13;3.13;;;14.40;99.90;;;;;;5081127;28;20451;-82
2022/10/25 09:10:26;;;;;;;7.70;2.73;;;14.30;99.90;;;;;;5000291;28;20468;-82
2022/10/25 09:13:00;;;;;;;10.30;3.00;;;14.40;99.90;;;;;;5001156;28;20460;-82
2022/10/25 09:15:38;;;;;;;7.87;3.77;;;14.30;99.90;;;;;;5054175;28;20441;-82
2022/10/25 09:18:15;;;;;;;5.93;3.07;;;14.60;99.90;;;;;;5089224;28;20428;-78
2022/10/25 09:20:48;;;;;;;7.03;3.30;;;14.70;99.90;;;;;;5086090;28;20522;-78
2022/10/25 09:23:25;;;;;;;9.60;3.77;;;14.70;99.90;;;;;;5078305;28;20522;-80
2022/10/25 09:26:02;;;;;;;6.53;2.90;;;14.80;99.90;;;;;;5075110;28;20461;-79
2022/10/25 09:28:44;;;;;;;5.10;3.17;;;15.00;99.90;;;;;;5076989;28;20915;-79
2022/10/25 09:31:14;;;;;;;8.97;3.83;;;14.90;99.90;;;;;;5075413;28;21006;-79
2022/10/25 09:33:46;;;;;;;6.03;3.03;;;15.00;99.90;;;;;;5075150;28;20476;-79
2022/10/25 09:36:14;;;;;;;5.30;2.77;;;15.00;99.90;;;;;;5077895;28;20432;-79
2022/10/25 09:38:45;;;;;;;6.30;3.10;;;15.00;99.90;;;;;;5078985;28;20445;-80
2022/10/25 09:41:16;;;;;;;5.90;2.70;;;15.10;99.90;;;;;;5078284;28;20480;-79
2022/10/25 09:43:52;;;;;;;8.17;3.03;;;15.10;99.90;;;;;;5076240;28;20428;-79
2022/10/25 09:46:25;;;;;;;8.43;3.40;;;15.20;99.90;;;;;;5080959;28;20443;-79
2022/10/25 09:48:58;;;;;;;4.83;2.80;;;15.10;99.90;;;;;;5081590;28;20432;-79
2022/10/25 09:51:31;;;;;;;3.00;2.53;;;15.10;99.90;;;;;;5082103;28;20470;-79
2022/10/25 09:53:59;;;;;;;5.50;2.60;;;15.00;99.90;;;;;;5075034;28;20853;-79
2022/10/25 09:56:25;;;;;;;6.77;2.80;;;15.10;99.90;;;;;;5074526;28;20514;-79
2022/10/25 09:58:54;;;;;;;3.03;2.80;;;15.00;99.90;;;;;;5074718;28;20502;-79
2022/10/25 10:01:25;;;;;;;3.37;2.50;;;15.00;99.90;;;;;;5074518;28;20499;-79
2022/10/25 10:03:53;;;;;;;4.80;2.40;;;15.00;99.90;;;;;;5076438;28;20436;-79
2022/10/25 10:06:23;;;;;;;3.63;2.40;;;15.20;99.90;;;;;;5075802;28;21032;-79
2022/10/25 10:08:54;;;;;;;4.83;2.70;;;15.30;99.90;;;;;;5077998;28;20866;-79
2022/10/25 10:11:21;;;;;;;2.70;2.47;;;15.30;99.90;;;;;;5076344;28;20816;-80
2022/10/25 10:13:52;;;;;;;5.43;3.37;;;15.40;99.90;;;;;;5078988;28;20425;-79
2022/10/25 10:16:25;;;;;;;6.40;2.87;;;15.70;99.90;;;;;;5078279;28;20520;-80
2022/10/25 10:19:12;;;;;;;3.20;2.17;;;15.50;99.90;;;;;;5080742;28;20490;-79
2022/10/25 10:21:42;;;;;;;9.43;3.50;;;15.40;99.90;;;;;;5078812;28;20484;-80
2022/10/25 10:24:17;;;;;;;6.37;2.37;;;15.50;99.90;;;;;;5080966;28;20890;-79
2022/10/25 10:26:47;;;;;;;5.80;2.83;;;15.40;99.90;;;;;;5079904;28;20436;-79
2022/10/25 10:29:19;;;;;;;5.97;2.70;;;15.40;99.90;;;;;;5081536;28;20464;-78
2022/10/25 10:31:50;;;;;;;3.47;2.50;;;15.40;99.90;;;;;;5080045;28;20461;-80
2022/10/25 10:34:26;;;;;;;3.80;2.87;;;15.50;99.90;;;;;;5081066;28;20428;-80
2022/10/25 10:37:12;;;;;;;3.20;2.70;;;15.50;99.90;;;;;;5080016;28;20495;-79
2022/10/25 10:39:47;;;;;;;3.20;2.40;;;15.10;99.90;;;;;;5079066;28;20905;-78
2022/10/25 10:42:16;;;;;;;11.10;2.47;;;15.40;99.90;;;;;;5077714;28;20468;-79
2022/10/25 10:45:01;;;;;;;5.03;2.40;;;15.50;99.90;;;;;;5077534;28;20511;-80
2022/10/25 10:47:34;;;;;;;8.43;3.80;;;15.50;99.90;;;;;;5079711;28;20796;-79
2022/10/25 10:50:01;;;;;;;6.47;3.67;;;15.50;99.90;;;;;;5078735;28;20507;-80
2022/10/25 10:52:31;;;;;;;5.80;2.63;;;15.50;99.90;;;;;;5080669;28;20478;-79
2022/10/25 10:54:59;;;;;;;21.17;8.03;;;15.90;99.90;;;;;;5079170;28;20539;-79
2022/10/25 10:57:31;;;;;;;16.40;10.10;;;15.70;99.90;;;;;;5077843;28;20479;-79
2022/10/25 10:59:59;;;;;;;12.40;4.10;;;15.80;99.90;;;;;;5077808;28;20834;-78
2022/10/25 11:02:42;;;;;;;5.70;3.90;;;15.70;99.90;;;;;;5078947;28;20490;-79
2022/10/25 11:05:25;;;;;;;6.17;4.47;;;15.80;99.90;;;;;;5077738;28;20406;-78
2022/10/25 11:07:57;;;;;;;8.80;3.87;;;15.80;99.90;;;;;;5074872;28;20481;-78
2022/10/25 11:10:29;;;;;;;10.70;6.90;;;15.90;99.90;;;;;;5078155;28;20555;-79
2022/10/25 11:13:10;;;;;;;10.90;4.50;;;16.20;99.90;;;;;;5079015;28;20494;-80
2022/10/25 11:16:22;;;;;;;6.50;3.07;;;16.30;99.90;;;;;;5080224;28;20465;-79
2022/10/25 11:19:06;;;;;;;3.70;3.03;;;16.40;99.90;;;;;;5081014;28;20937;-80
2022/10/25 11:21:42;;;;;;;4.00;2.57;;;16.70;99.90;;;;;;5086131;28;20542;-79
2022/10/25 11:24:20;;;;;;;5.77;4.80;;;16.70;99.90;;;;;;5082427;28;20523;-77
2022/10/25 11:26:55;;;;;;;12.90;7.00;;;16.40;99.90;;;;;;5078014;28;20432;-80
2022/10/25 11:29:36;;;;;;;4.90;2.97;;;16.60;99.90;;;;;;5078177;28;20823;-80
2022/10/25 11:32:19;;;;;;;6.70;3.00;;;16.60;99.90;;;;;;5078755;28;20519;-79
2022/10/25 11:34:55;;;;;;;7.57;3.77;;;16.90;99.90;;;;;;5110879;22;20495;-82
2022/10/25 11:37:29;;;;;;;6.57;2.73;;;17.00;99.90;;;;;;5101052;28;20428;-81
2022/10/25 11:40:08;;;;;;;4.40;2.13;;;17.10;99.90;;;;;;5106463;28;20419;-81
2022/10/25 11:42:59;;;;;;;4.40;3.00;;;17.20;99.90;;;;;;5099769;28;20471;-81
2022/10/25 11:45:35;;;;;;;3.40;2.70;;;17.10;99.90;;;;;;5079669;28;20911;-81
2022/10/25 11:48:26;;;;;;;4.50;2.57;;;17.20;99.90;;;;;;5080727;28;20445;-82
2022/10/25 11:51:02;;;;;;;5.00;2.70;;;17.20;90.30;;;;;;5079821;28;20489;-81
2022/10/25 11:53:59;;;;;;;5.67;2.90;;;17.30;21.70;;;;;;5081051;28;21004;-83
2022/10/25 11:56:35;;;;;;;7.73;3.80;;;17.30;46.20;;;;;;5085851;28;20441;-83
2022/10/25 11:59:36;;;;;;;5.67;2.57;;;17.40;54.80;;;;;;5083125;28;20806;-92
2022/10/25 12:02:19;;;;;;;8.57;2.53;;;17.50;3.30;;;;;;5088561;28;20499;-85
2022/10/25 12:04:57;;;;;;;7.50;3.40;;;17.40;1.00;;;;;;5094113;28;20483;-86
2022/10/25 12:07:32;;;;;;;10.80;3.17;;;17.30;1.00;;;;;;5088707;28;20444;-86
2022/10/25 12:10:09;;;;;;;4.80;2.57;;;17.20;3.10;;;;;;5083185;28;20433;-86
2022/10/25 12:12:42;;;;;;;9.40;3.17;;;17.20;1.00;;;;;;5084191;28;20841;-85
2022/10/25 12:15:17;;;;;;;4.53;2.53;;;17.30;42.00;;;;;;5086348;28;20440;-83
2022/10/25 12:17:44;;;;;;;5.60;2.90;;;17.30;1.00;;;;;;5088680;28;20446;-83
2022/10/25 12:20:19;;;;;;;5.53;3.10;;;17.10;1.00;;;;;;5095768;28;20424;-83
2022/10/25 12:22:50;;;;;;;3.03;2.20;;;17.00;99.90;;;;;;5086280;28;20464;-83
2022/10/25 12:25:23;;;;;;;10.97;3.10;;;16.80;54.70;;;;;;5083822;28;20472;-84
2022/10/25 12:27:59;;;;;;;2.50;1.93;;;16.70;99.90;;;;;;5084108;28;20437;-84
2022/10/25 12:30:26;;;;;;;4.80;2.10;;;16.60;99.90;;;;;;5085104;28;20429;-85
2022/10/25 12:32:59;;;;;;;5.67;3.10;;;16.80;99.90;;;;;;5084515;28;20441;-85
2022/10/25 12:35:30;;;;;;;3.57;2.40;;;16.60;99.90;;;;;;5086034;28;20436;-85
2022/10/25 12:38:02;;;;;;;6.47;2.90;;;16.60;99.90;;;;;;5083312;28;20433;-83
2022/10/25 12:40:38;;;;;;;11.23;2.67;;;16.50;99.90;;;;;;5082418;28;20433;-84
2022/10/25 12:43:13;;;;;;;4.13;2.67;;;16.50;99.90;;;;;;5087614;28;20484;-85
2022/10/25 12:46:08;;;;;;;10.63;2.30;;;16.50;99.90;;;;;;5087440;28;20437;-85
2022/10/25 12:48:59;;;;;;;3.93;2.53;;;16.60;99.90;;;;;;5032092;28;20443;-86
2022/10/25 12:51:44;;;;;;;4.30;2.43;;;16.40;99.90;;;;;;5093118;28;20421;-83
2022/10/25 12:54:38;;;;;;;5.20;2.80;;;16.60;99.90;;;;;;5089107;28;20452;-84
2022/10/25 12:57:16;;;;;;;5.80;3.30;;;16.20;99.90;;;;;;5088239;28;20436;-84
2022/10/25 12:59:56;;;;;;;6.70;3.40;;;16.10;99.90;;;;;;5083989;28;20903;-84
2022/10/25 13:02:46;;;;;;;7.03;3.23;;;16.10;99.90;;;;;;5083128;28;20469;-88
2022/10/25 13:05:33;;;;;;;6.73;3.20;;;16.10;99.90;;;;;;5083461;28;20429;-80
2022/10/25 13:08:04;;;;;;;8.10;2.80;;;16.10;99.90;;;;;;5076083;28;20774;-81